Time;durP1;ratioP1;P1;durP2;ratioP2;P2;SDS_P1;SDS_P2;PMS_P1;PMS_P2;Temp;Humidity;BMP_temperature;BMP_pressure;BME280_temperature;BME280_humidity;BME280_pressure;Samples;Min_cycle;Max_cycle;Signal;HPM_P1;HPM_P2
2021/05/12 00:00:25;;;;;;;9.10;7.32;;;13.20;85.50;;;;;;2064996;28;20038;-83
2021/05/12 00:01:26;;;;;;;7.95;6.93;;;13.20;85.80;;;;;;2081137;28;20129;-83
2021/05/12 00:02:26;;;;;;;8.02;7.03;;;13.20;85.60;;;;;;2088835;28;20388;-83
2021/05/12 00:03:27;;;;;;;9.15;7.30;;;13.20;85.60;;;;;;2093874;28;20071;-83
2021/05/12 00:04:27;;;;;;;7.90;7.10;;;13.20;85.60;;;;;;2069749;28;20026;-83
2021/05/12 00:05:28;;;;;;;8.55;7.65;;;13.10;85.60;;;;;;2060764;28;20042;-83
2021/05/12 00:06:29;;;;;;;9.30;7.88;;;13.10;85.60;;;;;;2073140;28;20026;-83
2021/05/12 00:07:29;;;;;;;8.77;7.72;;;13.10;85.60;;;;;;2085306;28;20422;-83
2021/05/12 00:08:30;;;;;;;8.93;7.72;;;13.10;85.60;;;;;;2075396;28;20034;-83
2021/05/12 00:09:31;;;;;;;8.32;7.32;;;13.10;85.60;;;;;;2073232;28;20045;-83
2021/05/12 00:10:31;;;;;;;9.23;7.50;;;13.10;85.60;;;;;;2073630;28;20446;-82
2021/05/12 00:11:32;;;;;;;9.85;8.23;;;13.10;85.60;;;;;;2079599;28;20048;-82
2021/05/12 00:12:34;;;;;;;9.15;8.10;;;13.10;85.70;;;;;;2089174;28;20061;-82
2021/05/12 00:13:34;;;;;;;9.20;8.18;;;13.00;86.20;;;;;;2086135;28;20025;-82
2021/05/12 00:14:36;;;;;;;8.70;7.60;;;13.00;85.70;;;;;;2081999;28;20570;-82
2021/05/12 00:15:37;;;;;;;8.80;7.72;;;13.00;85.70;;;;;;2089351;28;20029;-81
2021/05/12 00:16:38;;;;;;;9.20;7.80;;;13.00;85.70;;;;;;2073842;28;20061;-82
2021/05/12 00:17:40;;;;;;;9.38;7.80;;;13.00;85.70;;;;;;2073252;28;20025;-82
2021/05/12 00:18:43;;;;;;;9.40;7.93;;;13.00;85.80;;;;;;2077031;28;20340;-82
2021/05/12 00:19:52;;;;;;;8.73;7.70;;;13.00;85.80;;;;;;2080160;28;20034;-82
2021/05/12 00:20:52;;;;;;;8.75;7.63;;;13.00;85.90;;;;;;2076982;28;20528;-81
2021/05/12 00:22:12;;;;;;;8.70;7.53;;;12.90;85.80;;;;;;2084182;28;20028;-81
2021/05/12 00:23:17;;;;;;;10.13;7.68;;;12.90;85.90;;;;;;2088212;28;20080;-81
2021/05/12 00:24:18;;;;;;;10.45;7.82;;;12.90;85.90;;;;;;2077640;28;20348;-81
2021/05/12 00:25:19;;;;;;;8.85;7.57;;;12.90;85.90;;;;;;2081135;28;20032;-81
2021/05/12 00:26:19;;;;;;;8.40;7.50;;;12.90;85.90;;;;;;2083971;28;20480;-81
2021/05/12 00:27:20;;;;;;;9.45;7.80;;;12.90;86.00;;;;;;2077784;28;20038;-81
2021/05/12 00:28:21;;;;;;;9.40;7.82;;;12.90;86.00;;;;;;2080741;28;20045;-81
2021/05/12 00:29:21;;;;;;;9.15;8.13;;;12.90;86.00;;;;;;2093316;28;20035;-81
2021/05/12 00:30:22;;;;;;;9.93;8.27;;;12.80;86.00;;;;;;2093144;28;20039;-81
2021/05/12 00:31:23;;;;;;;10.27;8.65;;;12.80;86.00;;;;;;2091560;28;20044;-81
2021/05/12 00:32:24;;;;;;;9.38;7.57;;;12.80;86.10;;;;;;2091311;28;20574;-81
2021/05/12 00:33:24;;;;;;;9.43;8.23;;;12.80;86.10;;;;;;2078500;28;20033;-82
2021/05/12 00:34:25;;;;;;;9.07;8.02;;;12.80;86.10;;;;;;2086879;28;20447;-81
2021/05/12 00:35:26;;;;;;;9.68;8.27;;;12.80;86.20;;;;;;2072424;28;20037;-81
2021/05/12 00:36:27;;;;;;;9.85;8.35;;;12.80;86.20;;;;;;2072878;28;20022;-82
2021/05/12 00:37:27;;;;;;;9.50;8.27;;;12.80;86.10;;;;;;2070511;28;20072;-82
2021/05/12 00:38:28;;;;;;;9.55;8.38;;;12.80;86.10;;;;;;2070785;28;20033;-81
2021/05/12 00:39:29;;;;;;;10.52;8.25;;;12.80;86.10;;;;;;2077570;28;20033;-82
2021/05/12 00:40:29;;;;;;;9.60;8.23;;;12.80;86.10;;;;;;2085715;28;20029;-81
2021/05/12 00:41:30;;;;;;;9.45;7.68;;;12.80;86.10;;;;;;2079307;28;20164;-82
2021/05/12 00:42:32;;;;;;;10.13;8.02;;;12.80;86.10;;;;;;2064296;28;20153;-82
2021/05/12 00:43:33;;;;;;;8.93;8.02;;;12.80;86.10;;;;;;2065016;28;20026;-81
2021/05/12 00:44:33;;;;;;;9.38;8.25;;;12.80;86.10;;;;;;2080701;28;20033;-82
2021/05/12 00:45:34;;;;;;;10.85;8.57;;;12.80;86.10;;;;;;2086315;28;20039;-82
2021/05/12 00:46:42;;;;;;;9.10;7.90;;;12.70;86.10;;;;;;2089928;28;20448;-81
2021/05/12 00:47:48;;;;;;;9.65;8.20;;;12.80;86.10;;;;;;2090380;28;20124;-81
2021/05/12 00:48:49;;;;;;;10.07;8.32;;;12.80;86.10;;;;;;2095374;28;20085;-81
2021/05/12 00:49:49;;;;;;;10.00;7.65;;;12.80;86.00;;;;;;2085549;28;20029;-81
2021/05/12 00:50:50;;;;;;;9.98;8.07;;;12.70;86.00;;;;;;2070059;28;20172;-81
2021/05/12 00:51:50;;;;;;;9.65;8.15;;;12.70;86.00;;;;;;2079087;28;20049;-81
2021/05/12 00:52:51;;;;;;;9.75;8.13;;;12.80;86.10;;;;;;2082755;28;20087;-81
2021/05/12 00:53:52;;;;;;;9.73;7.93;;;12.70;86.00;;;;;;2077220;28;20125;-81
2021/05/12 00:54:53;;;;;;;9.82;8.20;;;12.70;86.00;;;;;;2076068;28;20040;-81
2021/05/12 00:55:54;;;;;;;9.20;7.78;;;12.70;86.00;;;;;;2078159;28;20048;-81
2021/05/12 00:56:54;;;;;;;9.68;7.85;;;12.70;86.70;;;;;;2072316;28;20026;-81
2021/05/12 00:57:55;;;;;;;9.40;7.82;;;12.70;86.10;;;;;;2071821;28;20053;-81
2021/05/12 00:58:56;;;;;;;9.07;7.55;;;12.70;86.10;;;;;;2067135;28;20031;-81
2021/05/12 00:59:56;;;;;;;9.45;7.70;;;12.70;86.10;;;;;;2070869;28;20030;-81
2021/05/12 01:00:58;;;;;;;9.48;7.80;;;12.70;86.20;;;;;;2063423;28;20038;-82
2021/05/12 01:01:59;;;;;;;9.75;7.57;;;12.70;86.20;;;;;;2079536;28;20120;-81
2021/05/12 01:03:02;;;;;;;10.15;7.78;;;12.60;86.10;;;;;;2086765;28;20027;-82
2021/05/12 01:04:04;;;;;;;9.40;7.97;;;12.60;86.10;;;;;;2094164;28;20074;-82
2021/05/12 01:05:07;;;;;;;9.00;7.43;;;12.60;86.20;;;;;;2090532;28;20017;-82
2021/05/12 01:06:25;;;;;;;10.02;7.65;;;12.60;86.10;;;;;;2083707;28;20368;-81
2021/05/12 01:07:26;;;;;;;9.02;7.18;;;12.60;86.10;;;;;;2077179;28;20030;-82
2021/05/12 01:08:29;;;;;;;10.43;7.22;;;12.60;86.10;;;;;;2072573;28;20125;-82
2021/05/12 01:09:30;;;;;;;10.05;7.57;;;12.60;86.10;;;;;;2082093;28;20352;-82
2021/05/12 01:10:32;;;;;;;9.25;7.15;;;12.60;86.10;;;;;;2078390;28;20128;-83
2021/05/12 01:11:33;;;;;;;9.05;7.03;;;12.60;86.70;;;;;;2071087;28;20050;-82
2021/05/12 01:12:34;;;;;;;8.80;7.13;;;12.60;86.10;;;;;;2066049;28;20031;-82
2021/05/12 01:13:34;;;;;;;9.00;7.00;;;12.60;86.70;;;;;;2059653;28;20056;-82
2021/05/12 01:14:35;;;;;;;10.52;6.47;;;12.50;86.00;;;;;;2046809;28;20079;-82
2021/05/12 01:15:36;;;;;;;9.52;7.22;;;12.60;86.00;;;;;;2063800;28;20057;-82
2021/05/12 01:16:36;;;;;;;9.63;6.90;;;12.60;86.00;;;;;;2086687;28;20427;-82
2021/05/12 01:17:37;;;;;;;7.75;6.40;;;12.50;85.90;;;;;;2062250;28;20118;-82
2021/05/12 01:18:38;;;;;;;8.80;7.00;;;12.50;85.90;;;;;;2067269;28;20027;-82
2021/05/12 01:19:39;;;;;;;8.38;6.85;;;12.50;85.90;;;;;;2078076;28;20017;-82
2021/05/12 01:20:57;;;;;;;9.38;6.70;;;12.50;85.90;;;;;;2080096;28;20041;-82
2021/05/12 01:21:58;;;;;;;8.10;6.55;;;12.50;85.90;;;;;;2078645;28;20491;-82
2021/05/12 01:22:58;;;;;;;7.53;6.15;;;12.50;85.90;;;;;;2082403;28;20108;-81
2021/05/12 01:23:59;;;;;;;7.82;6.28;;;12.50;85.80;;;;;;2083118;28;20032;-81
2021/05/12 01:25:00;;;;;;;9.15;7.13;;;12.50;85.80;;;;;;2071839;28;20445;-82
2021/05/12 01:26:06;;;;;;;9.05;6.68;;;12.50;85.80;;;;;;2067765;28;20030;-82
2021/05/12 01:27:08;;;;;;;8.15;6.13;;;12.40;85.70;;;;;;2080319;28;20026;-81
2021/05/12 01:28:08;;;;;;;8.25;6.30;;;12.40;85.80;;;;;;2083476;28;20044;-82
2021/05/12 01:29:09;;;;;;;9.10;6.20;;;12.50;85.70;;;;;;2078867;28;20419;-81
2021/05/12 01:30:11;;;;;;;7.93;6.10;;;12.40;85.70;;;;;;2081546;28;20553;-81
2021/05/12 01:31:13;;;;;;;7.90;5.90;;;12.40;85.70;;;;;;2084331;28;20067;-81
2021/05/12 01:32:13;;;;;;;7.70;5.80;;;12.40;85.60;;;;;;2075782;28;20029;-81
2021/05/12 01:33:14;;;;;;;7.10;6.00;;;12.40;85.60;;;;;;2082118;28;20049;-81
2021/05/12 01:34:17;;;;;;;8.77;6.13;;;12.40;85.60;;;;;;2080769;28;20497;-82
2021/05/12 01:35:18;;;;;;;8.10;5.85;;;12.40;85.60;;;;;;2080735;28;20044;-81
2021/05/12 01:36:19;;;;;;;7.75;6.07;;;12.40;85.50;;;;;;2086269;28;20029;-82
2021/05/12 01:37:20;;;;;;;8.32;5.80;;;12.40;85.60;;;;;;2069258;28;20050;-81
2021/05/12 01:38:21;;;;;;;7.93;5.60;;;12.40;85.50;;;;;;2071484;28;20029;-81
2021/05/12 01:39:22;;;;;;;7.20;5.50;;;12.40;85.50;;;;;;2079840;28;20033;-81
2021/05/12 01:40:22;;;;;;;7.93;6.20;;;12.40;86.10;;;;;;2077159;28;20025;-83
2021/05/12 01:41:26;;;;;;;7.60;6.03;;;12.40;85.40;;;;;;2076025;28;20143;-81
2021/05/12 01:42:27;;;;;;;7.68;5.72;;;12.30;85.40;;;;;;2083439;28;20071;-82
2021/05/12 01:43:29;;;;;;;7.72;5.85;;;12.30;85.40;;;;;;2083601;28;20025;-81
2021/05/12 01:44:30;;;;;;;7.53;5.45;;;12.30;85.40;;;;;;2090426;28;20043;-81
2021/05/12 01:45:31;;;;;;;8.43;5.43;;;12.30;85.40;;;;;;2080138;28;20458;-82
2021/05/12 01:46:31;;;;;;;7.13;5.60;;;12.30;85.30;;;;;;2076127;28;20029;-81
2021/05/12 01:47:32;;;;;;;7.35;5.45;;;12.30;85.30;;;;;;2085550;28;20041;-82
2021/05/12 01:48:33;;;;;;;7.28;5.72;;;12.30;85.30;;;;;;2085849;28;20410;-81
2021/05/12 01:49:34;;;;;;;7.97;5.75;;;12.30;85.30;;;;;;2085085;28;20053;-82
2021/05/12 01:50:36;;;;;;;7.85;5.10;;;12.30;85.90;;;;;;2088490;28;20128;-82
2021/05/12 01:51:37;;;;;;;7.88;5.60;;;12.20;85.20;;;;;;2075374;28;20476;-82
2021/05/12 01:52:43;;;;;;;7.45;5.55;;;12.20;85.30;;;;;;2080422;28;20028;-82
2021/05/12 01:53:44;;;;;;;6.63;5.50;;;12.20;85.30;;;;;;2081131;28;20017;-81
2021/05/12 01:54:45;;;;;;;7.22;5.25;;;12.20;85.30;;;;;;2079139;28;20033;-81
2021/05/12 01:55:47;;;;;;;6.72;5.35;;;12.20;85.30;;;;;;2060977;28;20107;-81
2021/05/12 01:56:48;;;;;;;7.53;5.30;;;12.20;85.30;;;;;;2071447;28;20022;-81
2021/05/12 01:57:48;;;;;;;7.78;5.65;;;12.20;85.40;;;;;;2085535;28;20121;-82
2021/05/12 01:58:49;;;;;;;7.07;5.50;;;12.10;85.30;;;;;;2077628;28;20022;-82
2021/05/12 01:59:49;;;;;;;7.43;5.30;;;12.10;85.30;;;;;;2069690;28;20562;-81
2021/05/12 02:00:52;;;;;;;7.85;5.78;;;12.10;85.20;;;;;;2080184;28;20416;-82
2021/05/12 02:01:53;;;;;;;8.20;5.80;;;12.10;85.30;;;;;;2087967;28;20053;-81
2021/05/12 02:02:54;;;;;;;7.00;5.13;;;12.10;85.30;;;;;;2072773;28;20032;-82
2021/05/12 02:03:55;;;;;;;7.05;5.80;;;12.10;85.90;;;;;;2079226;28;20029;-81
2021/05/12 02:04:55;;;;;;;8.93;5.55;;;12.00;85.20;;;;;;2083030;28;20072;-81
2021/05/12 02:05:56;;;;;;;7.07;5.03;;;12.00;85.20;;;;;;2076819;28;21688;-81
2021/05/12 02:06:57;;;;;;;6.93;5.43;;;12.00;85.20;;;;;;2075248;28;20128;-81
2021/05/12 02:07:59;;;;;;;8.40;5.95;;;12.00;85.30;;;;;;2071375;28;20022;-81
2021/05/12 02:09:01;;;;;;;7.95;5.60;;;12.00;85.30;;;;;;2072701;28;20026;-82
2021/05/12 02:10:03;;;;;;;7.38;5.75;;;12.00;85.30;;;;;;2071625;28;20448;-82
2021/05/12 02:11:05;;;;;;;7.65;5.35;;;11.90;85.30;;;;;;2070073;28;20038;-82
2021/05/12 02:12:06;;;;;;;7.68;5.25;;;11.90;85.30;;;;;;2088900;28;20025;-82
2021/05/12 02:13:07;;;;;;;8.00;6.13;;;11.90;85.30;;;;;;2071951;28;20036;-83
2021/05/12 02:14:08;;;;;;;7.03;5.30;;;11.90;85.40;;;;;;2063756;28;20045;-82
2021/05/12 02:15:11;;;;;;;7.20;5.35;;;11.80;85.40;;;;;;2075601;28;20033;-83
2021/05/12 02:16:12;;;;;;;9.35;5.63;;;11.80;85.40;;;;;;2070920;28;20058;-83
2021/05/12 02:17:13;;;;;;;7.57;5.38;;;11.80;85.50;;;;;;2063465;28;20037;-83
2021/05/12 02:18:13;;;;;;;8.18;5.75;;;11.80;85.50;;;;;;2069968;28;20459;-82
2021/05/12 02:19:14;;;;;;;9.70;5.78;;;11.80;85.60;;;;;;2071459;28;20061;-82
2021/05/12 02:20:17;;;;;;;7.38;5.75;;;11.80;85.60;;;;;;2071831;28;20045;-82
2021/05/12 02:21:17;;;;;;;8.05;5.70;;;11.80;85.60;;;;;;2086114;28;20144;-82
2021/05/12 02:22:18;;;;;;;7.28;5.40;;;11.80;85.60;;;;;;2083349;28;20033;-82
2021/05/12 02:23:20;;;;;;;7.97;5.60;;;11.80;85.60;;;;;;2085785;28;20448;-82
2021/05/12 02:24:21;;;;;;;7.72;5.65;;;11.80;85.60;;;;;;2070713;28;20034;-82
2021/05/12 02:25:22;;;;;;;8.02;5.65;;;11.80;85.60;;;;;;2070710;28;20650;-82
2021/05/12 02:26:22;;;;;;;7.82;5.85;;;11.80;85.60;;;;;;2086463;28;20029;-83
2021/05/12 02:27:23;;;;;;;7.30;5.75;;;11.80;85.50;;;;;;2077338;28;20119;-82
2021/05/12 02:28:24;;;;;;;8.10;5.70;;;11.80;85.50;;;;;;2077201;28;20404;-82
2021/05/12 02:29:25;;;;;;;7.22;5.65;;;11.80;85.50;;;;;;2082483;28;20027;-82
2021/05/12 02:30:26;;;;;;;8.30;5.68;;;11.80;85.40;;;;;;2080861;28;20025;-82
2021/05/12 02:31:26;;;;;;;8.40;5.88;;;11.80;85.50;;;;;;2077082;28;20026;-82
2021/05/12 02:32:31;;;;;;;7.07;5.68;;;11.80;85.50;;;;;;2080368;28;20029;-82
2021/05/12 02:33:31;;;;;;;7.25;5.65;;;11.80;85.40;;;;;;2086367;28;20088;-83
2021/05/12 02:34:32;;;;;;;9.30;6.20;;;11.80;85.40;;;;;;2094850;28;20021;-82
2021/05/12 02:35:34;;;;;;;8.30;6.32;;;11.90;85.50;;;;;;2092883;28;20039;-82
2021/05/12 02:36:34;;;;;;;8.68;6.15;;;11.90;85.50;;;;;;2091339;28;20025;-82
2021/05/12 02:37:36;;;;;;;7.18;5.68;;;11.90;85.50;;;;;;2081626;28;21898;-82
2021/05/12 02:38:36;;;;;;;7.85;6.05;;;11.90;85.50;;;;;;2082663;28;20017;-82
2021/05/12 02:39:37;;;;;;;9.10;6.43;;;11.90;85.50;;;;;;2084112;28;20036;-82
2021/05/12 02:40:38;;;;;;;8.55;6.45;;;11.90;85.40;;;;;;2068505;28;20048;-82
2021/05/12 02:41:38;;;;;;;9.45;7.22;;;11.90;85.40;;;;;;2078606;28;20087;-82
2021/05/12 02:42:40;;;;;;;8.30;6.22;;;11.90;85.40;;;;;;2079430;28;20025;-82
2021/05/12 02:43:41;;;;;;;10.40;6.55;;;11.90;85.40;;;;;;2078897;28;20081;-82
2021/05/12 02:44:42;;;;;;;8.95;6.55;;;11.90;85.40;;;;;;2083073;28;20164;-82
2021/05/12 02:45:42;;;;;;;8.40;6.60;;;11.90;85.40;;;;;;2079812;28;20111;-82
2021/05/12 02:46:43;;;;;;;8.65;6.75;;;11.90;85.40;;;;;;2075786;28;20036;-82
2021/05/12 02:48:00;;;;;;;9.80;6.85;;;11.90;85.40;;;;;;2091770;28;20422;-82
2021/05/12 02:49:00;;;;;;;8.18;6.57;;;11.90;85.40;;;;;;2087211;28;20022;-82
2021/05/12 02:50:02;;;;;;;8.82;7.18;;;11.90;85.40;;;;;;2071916;28;20034;-82
2021/05/12 02:51:03;;;;;;;10.43;7.28;;;11.90;85.40;;;;;;2061405;28;20125;-82
2021/05/12 02:52:04;;;;;;;10.38;7.22;;;11.90;85.40;;;;;;2072650;28;20022;-82
2021/05/12 02:53:06;;;;;;;9.48;7.07;;;11.90;85.40;;;;;;2075796;28;20037;-82
2021/05/12 02:54:07;;;;;;;9.32;7.15;;;11.90;85.40;;;;;;2086994;28;20159;-82
2021/05/12 02:55:09;;;;;;;10.30;7.55;;;11.90;85.40;;;;;;2073953;28;20045;-82
2021/05/12 02:56:09;;;;;;;10.75;7.45;;;11.90;85.40;;;;;;2084574;28;20028;-82
2021/05/12 02:57:10;;;;;;;9.07;7.05;;;11.90;85.50;;;;;;2084224;28;20395;-82
2021/05/12 02:58:11;;;;;;;9.63;7.32;;;11.90;85.50;;;;;;2082853;28;20069;-83
2021/05/12 02:59:11;;;;;;;10.35;7.40;;;11.90;85.50;;;;;;2084398;28;20041;-82
2021/05/12 03:00:15;;;;;;;10.45;7.90;;;11.90;85.50;;;;;;2084730;28;20438;-82
2021/05/12 03:01:16;;;;;;;9.63;7.25;;;11.90;85.50;;;;;;2084879;28;20164;-82
2021/05/12 03:02:16;;;;;;;9.55;7.53;;;11.90;85.50;;;;;;2071441;28;20077;-82
2021/05/12 03:03:17;;;;;;;10.45;7.38;;;11.90;85.60;;;;;;2069432;28;20077;-82
2021/05/12 03:04:18;;;;;;;9.02;7.03;;;11.90;85.60;;;;;;2079717;28;20423;-82
2021/05/12 03:05:19;;;;;;;10.82;7.70;;;11.90;85.60;;;;;;2068655;28;20519;-82
2021/05/12 03:06:20;;;;;;;9.85;7.60;;;11.90;85.60;;;;;;2080222;28;20018;-82
2021/05/12 03:07:20;;;;;;;9.57;7.63;;;11.90;85.60;;;;;;2091721;28;20805;-82
2021/05/12 03:08:21;;;;;;;10.38;7.80;;;11.90;85.50;;;;;;2084236;28;20029;-82
2021/05/12 03:09:23;;;;;;;9.77;7.47;;;11.90;85.50;;;;;;2082099;28;20427;-82
2021/05/12 03:10:24;;;;;;;9.30;7.60;;;11.90;85.50;;;;;;2085323;28;20436;-82
2021/05/12 03:11:25;;;;;;;9.30;7.30;;;11.90;85.50;;;;;;2082866;28;20079;-82
2021/05/12 03:12:25;;;;;;;10.23;7.80;;;11.90;85.50;;;;;;2076830;28;20022;-81
2021/05/12 03:13:26;;;;;;;10.32;7.72;;;11.90;85.50;;;;;;2075486;28;20037;-82
2021/05/12 03:14:29;;;;;;;9.27;7.30;;;11.90;85.50;;;;;;2077043;28;20557;-82
2021/05/12 03:15:30;;;;;;;10.25;8.20;;;11.90;85.50;;;;;;2083532;28;20069;-82
2021/05/12 03:16:31;;;;;;;9.73;7.60;;;11.90;85.60;;;;;;2095914;28;20039;-82
2021/05/12 03:17:32;;;;;;;10.55;8.10;;;11.80;85.50;;;;;;2083586;28;20080;-82
2021/05/12 03:18:32;;;;;;;10.32;7.32;;;11.80;85.50;;;;;;2081948;28;20029;-82
2021/05/12 03:19:33;;;;;;;9.90;7.95;;;11.80;85.50;;;;;;2095482;28;20036;-82
2021/05/12 03:20:35;;;;;;;10.00;7.72;;;11.80;85.50;;;;;;2073428;28;20480;-82
2021/05/12 03:21:36;;;;;;;9.52;7.40;;;11.80;85.60;;;;;;2075896;28;20033;-82
2021/05/12 03:22:37;;;;;;;10.30;7.65;;;11.80;85.60;;;;;;2083149;28;20022;-82
2021/05/12 03:23:38;;;;;;;9.45;7.25;;;11.80;85.70;;;;;;2080364;28;20029;-82
2021/05/12 03:24:38;;;;;;;9.98;7.63;;;11.80;85.60;;;;;;2080366;28;20466;-82
2021/05/12 03:25:39;;;;;;;9.70;7.68;;;11.80;85.70;;;;;;2079207;28;20557;-82
2021/05/12 03:26:39;;;;;;;9.88;7.63;;;11.70;85.60;;;;;;2067171;28;20058;-82
2021/05/12 03:27:40;;;;;;;9.93;7.43;;;11.70;85.70;;;;;;2075926;28;20558;-82
2021/05/12 03:28:43;;;;;;;9.25;7.45;;;11.70;85.70;;;;;;2081601;28;20053;-82
2021/05/12 03:29:43;;;;;;;10.00;7.38;;;11.70;85.80;;;;;;2077184;28;20029;-82
2021/05/12 03:30:44;;;;;;;11.05;7.80;;;11.60;85.80;;;;;;2083507;28;20039;-82
2021/05/12 03:31:45;;;;;;;11.13;7.60;;;11.60;85.80;;;;;;2082130;28;20025;-82
2021/05/12 03:32:45;;;;;;;10.63;7.80;;;11.60;85.80;;;;;;2084335;28;20068;-81
2021/05/12 03:33:47;;;;;;;9.50;7.35;;;11.60;85.80;;;;;;2071658;28;20033;-82
2021/05/12 03:34:47;;;;;;;9.48;7.53;;;11.60;85.80;;;;;;2073089;28;20455;-82
2021/05/12 03:35:48;;;;;;;9.48;7.45;;;11.60;85.80;;;;;;2070064;28;20033;-82
2021/05/12 03:36:48;;;;;;;11.95;7.95;;;11.60;85.80;;;;;;2065151;28;20065;-81
2021/05/12 03:37:49;;;;;;;9.07;7.40;;;11.60;85.80;;;;;;2070385;28;20036;-81
2021/05/12 03:38:51;;;;;;;11.10;8.13;;;11.50;85.90;;;;;;2082235;28;20057;-81
2021/05/12 03:39:51;;;;;;;9.50;6.93;;;11.50;85.90;;;;;;2082287;28;20104;-81
2021/05/12 03:40:52;;;;;;;10.38;7.57;;;11.50;85.90;;;;;;2076370;28;20537;-81
2021/05/12 03:41:53;;;;;;;9.10;7.40;;;11.50;85.90;;;;;;2076728;28;20112;-81
2021/05/12 03:42:54;;;;;;;10.43;7.82;;;11.50;85.90;;;;;;2085908;28;20514;-82
2021/05/12 03:43:55;;;;;;;11.07;7.13;;;11.50;85.90;;;;;;2078719;28;20021;-81
2021/05/12 03:44:56;;;;;;;10.35;7.30;;;11.50;85.90;;;;;;2079042;28;20468;-82
2021/05/12 03:45:57;;;;;;;10.98;8.13;;;11.50;85.90;;;;;;2072352;28;20064;-81
2021/05/12 03:46:58;;;;;;;10.43;7.22;;;11.50;86.00;;;;;;2089441;28;20391;-81
2021/05/12 03:47:59;;;;;;;10.32;7.40;;;11.40;86.00;;;;;;2093961;28;20355;-82
2021/05/12 03:49:00;;;;;;;9.73;7.07;;;11.40;86.00;;;;;;2094649;28;20039;-81
2021/05/12 03:50:01;;;;;;;8.77;7.03;;;11.30;86.10;;;;;;2091145;28;20028;-81
2021/05/12 03:51:02;;;;;;;10.45;7.38;;;11.40;86.20;;;;;;2084160;28;20033;-81
2021/05/12 03:52:03;;;;;;;9.55;7.40;;;11.30;86.20;;;;;;2077472;28;20057;-81
2021/05/12 03:53:05;;;;;;;10.43;7.43;;;11.30;86.20;;;;;;2068274;28;20037;-82
2021/05/12 03:54:06;;;;;;;10.63;7.43;;;11.30;86.20;;;;;;2079399;28;20025;-82
2021/05/12 03:55:08;;;;;;;10.80;8.23;;;11.30;86.20;;;;;;2095913;28;20067;-82
2021/05/12 03:56:09;;;;;;;10.00;7.50;;;11.30;86.20;;;;;;2079898;28;20410;-82
2021/05/12 03:57:10;;;;;;;11.15;7.95;;;11.30;86.20;;;;;;2072927;28;20030;-81
2021/05/12 03:58:10;;;;;;;10.43;8.05;;;11.30;86.20;;;;;;2074466;28;20129;-82
2021/05/12 03:59:11;;;;;;;11.40;8.25;;;11.30;86.20;;;;;;2072938;28;20041;-81
2021/05/12 04:00:13;;;;;;;10.82;7.85;;;11.30;86.20;;;;;;2080943;28;20092;-82
2021/05/12 04:01:14;;;;;;;10.15;8.40;;;11.30;86.30;;;;;;2084997;28;20446;-82
2021/05/12 04:02:14;;;;;;;10.68;7.95;;;11.20;86.20;;;;;;2069025;28;20048;-82
2021/05/12 04:03:15;;;;;;;11.63;8.60;;;11.30;86.30;;;;;;2084932;28;20025;-82
2021/05/12 04:04:17;;;;;;;12.35;8.02;;;11.30;86.30;;;;;;2074328;28;20022;-82
2021/05/12 04:05:18;;;;;;;10.57;8.68;;;11.30;86.30;;;;;;2080479;28;20361;-82
2021/05/12 04:06:19;;;;;;;11.02;8.85;;;11.30;86.30;;;;;;2089813;28;20055;-82
2021/05/12 04:07:19;;;;;;;11.20;8.48;;;11.30;86.30;;;;;;2096288;28;20028;-82
2021/05/12 04:08:20;;;;;;;11.52;8.68;;;11.20;86.20;;;;;;2082540;28;20495;-82
2021/05/12 04:09:21;;;;;;;10.82;8.25;;;11.20;86.20;;;;;;2080243;28;20032;-82
2021/05/12 04:10:22;;;;;;;12.10;8.98;;;11.20;86.20;;;;;;2086486;28;20029;-81
2021/05/12 04:11:23;;;;;;;11.00;8.82;;;11.20;86.20;;;;;;2085246;28;20451;-81
2021/05/12 04:12:23;;;;;;;11.70;8.52;;;11.20;86.20;;;;;;2086046;28;20036;-82
2021/05/12 04:13:24;;;;;;;12.13;8.77;;;11.20;86.30;;;;;;2078895;28;20565;-82
2021/05/12 04:14:25;;;;;;;11.05;8.68;;;11.20;86.30;;;;;;2085145;28;20025;-82
2021/05/12 04:15:26;;;;;;;12.07;8.77;;;11.20;86.30;;;;;;2094728;28;20025;-82
2021/05/12 04:16:26;;;;;;;11.95;8.63;;;11.20;86.30;;;;;;2074609;28;20103;-82
2021/05/12 04:17:27;;;;;;;11.43;8.75;;;11.20;86.30;;;;;;2076458;28;20065;-82
2021/05/12 04:18:28;;;;;;;12.50;8.60;;;11.20;86.40;;;;;;2088400;28;20056;-82
2021/05/12 04:19:28;;;;;;;11.07;8.98;;;11.20;86.30;;;;;;2088586;28;20067;-82
2021/05/12 04:20:29;;;;;;;13.23;8.70;;;11.20;86.30;;;;;;2086004;28;20570;-82
2021/05/12 04:21:33;;;;;;;11.15;8.70;;;11.20;86.30;;;;;;2085840;28;20678;-82
2021/05/12 04:22:33;;;;;;;11.82;8.50;;;11.20;86.40;;;;;;2084170;28;20024;-82
2021/05/12 04:23:34;;;;;;;11.65;8.48;;;11.20;86.30;;;;;;2089198;28;20057;-82
2021/05/12 04:24:35;;;;;;;10.93;8.52;;;11.30;86.30;;;;;;2087591;28;20483;-80
2021/05/12 04:25:35;;;;;;;10.93;8.75;;;11.30;86.30;;;;;;2086484;28;20126;-81
2021/05/12 04:26:36;;;;;;;11.40;8.23;;;11.30;86.20;;;;;;2093765;28;20021;-82
2021/05/12 04:27:37;;;;;;;11.18;8.35;;;11.30;86.20;;;;;;2088019;28;20120;-81
2021/05/12 04:28:38;;;;;;;11.85;8.90;;;11.30;86.10;;;;;;2076871;28;20033;-81
2021/05/12 04:29:39;;;;;;;10.88;8.63;;;11.30;86.10;;;;;;2089287;28;20080;-81
2021/05/12 04:30:40;;;;;;;11.73;8.57;;;11.40;86.10;;;;;;2095750;28;20094;-81
2021/05/12 04:31:40;;;;;;;11.38;8.55;;;11.40;86.70;;;;;;2097155;28;20483;-81
2021/05/12 04:32:41;;;;;;;10.48;8.15;;;11.40;86.00;;;;;;2080949;28;20172;-81
2021/05/12 04:33:42;;;;;;;11.65;8.60;;;11.40;86.00;;;;;;2064027;28;20125;-81
2021/05/12 04:34:43;;;;;;;10.85;7.95;;;11.40;86.00;;;;;;2072557;28;20116;-81
2021/05/12 04:35:43;;;;;;;10.25;8.43;;;11.40;86.00;;;;;;2072140;28;20432;-82
2021/05/12 04:36:44;;;;;;;11.45;8.48;;;11.40;86.00;;;;;;2073919;28;20412;-81
2021/05/12 04:37:46;;;;;;;13.15;8.75;;;11.40;86.00;;;;;;2081693;28;20117;-82
2021/05/12 04:38:46;;;;;;;11.57;8.30;;;11.40;86.00;;;;;;2086299;28;20025;-81
2021/05/12 04:39:47;;;;;;;12.60;8.88;;;11.40;86.10;;;;;;2076060;28;20026;-81
2021/05/12 04:40:47;;;;;;;11.02;8.70;;;11.40;86.10;;;;;;2065351;28;20042;-81
2021/05/12 04:41:48;;;;;;;11.43;8.50;;;11.40;86.10;;;;;;2079771;28;20063;-81
2021/05/12 04:42:49;;;;;;;11.90;8.55;;;11.40;86.20;;;;;;2086518;28;20051;-81
2021/05/12 04:43:50;;;;;;;10.77;8.45;;;11.40;86.20;;;;;;2085808;28;20029;-81
2021/05/12 04:44:52;;;;;;;10.85;8.10;;;11.40;86.20;;;;;;2085864;28;20029;-81
2021/05/12 04:45:53;;;;;;;10.75;8.27;;;11.30;86.10;;;;;;2084228;28;20017;-81
2021/05/12 04:46:56;;;;;;;10.68;7.82;;;11.30;86.10;;;;;;2074764;28;20566;-81
2021/05/12 04:47:56;;;;;;;11.55;8.48;;;11.30;86.10;;;;;;2080377;28;20033;-81
2021/05/12 04:48:57;;;;;;;11.57;8.38;;;11.30;86.20;;;;;;2088672;28;20037;-81
2021/05/12 04:49:58;;;;;;;10.57;8.13;;;11.30;86.20;;;;;;2080110;28;20493;-81
2021/05/12 04:50:59;;;;;;;11.15;8.38;;;11.30;86.30;;;;;;2064706;28;20030;-81
2021/05/12 04:52:00;;;;;;;10.88;8.50;;;11.30;86.30;;;;;;2074590;28;20058;-81
2021/05/12 04:53:01;;;;;;;11.18;8.38;;;11.30;86.40;;;;;;2075320;28;20481;-81
2021/05/12 04:54:06;;;;;;;11.48;8.20;;;11.30;86.40;;;;;;2079780;28;20119;-81
2021/05/12 04:55:08;;;;;;;11.02;8.23;;;11.30;86.40;;;;;;2088910;28;20029;-82
2021/05/12 04:56:08;;;;;;;11.07;8.40;;;11.30;86.30;;;;;;2080327;28;20053;-81
2021/05/12 04:57:09;;;;;;;10.13;7.53;;;11.30;86.30;;;;;;2079245;28;20021;-81
2021/05/12 04:58:10;;;;;;;11.10;8.30;;;11.30;86.30;;;;;;2088281;28;20021;-81
2021/05/12 04:59:10;;;;;;;11.10;8.30;;;11.30;86.30;;;;;;2077896;28;20026;-81
2021/05/12 05:00:13;;;;;;;10.90;8.60;;;11.30;86.30;;;;;;2079874;28;20032;-81
2021/05/12 05:01:14;;;;;;;11.10;8.35;;;11.30;86.30;;;;;;2080662;28;20043;-81
2021/05/12 05:02:15;;;;;;;10.68;8.05;;;11.40;86.30;;;;;;2079037;28;20515;-81
2021/05/12 05:03:16;;;;;;;9.48;7.45;;;11.40;86.20;;;;;;2085604;28;20036;-81
2021/05/12 05:04:17;;;;;;;11.32;8.35;;;11.40;86.20;;;;;;2081701;28;20026;-81
2021/05/12 05:05:19;;;;;;;9.68;7.38;;;11.50;86.10;;;;;;2079320;28;20590;-81
2021/05/12 05:06:19;;;;;;;11.80;8.43;;;11.50;86.00;;;;;;2080137;28;20040;-81
2021/05/12 05:07:20;;;;;;;10.57;7.85;;;11.60;85.90;;;;;;2072217;28;20026;-81
2021/05/12 05:08:21;;;;;;;10.57;7.72;;;11.60;85.80;;;;;;2072321;28;20036;-82
2021/05/12 05:09:21;;;;;;;9.90;7.45;;;11.70;85.80;;;;;;2080052;28;20033;-81
2021/05/12 05:10:22;;;;;;;9.30;7.45;;;11.70;85.60;;;;;;2071430;28;20024;-81
2021/05/12 05:11:23;;;;;;;11.02;7.70;;;11.80;85.50;;;;;;2078651;28;20052;-81
2021/05/12 05:12:23;;;;;;;10.35;7.68;;;11.90;85.40;;;;;;2087041;28;20491;-81
2021/05/12 05:13:24;;;;;;;11.05;8.10;;;11.90;85.20;;;;;;2088870;28;20021;-82
2021/05/12 05:14:25;;;;;;;11.73;7.80;;;12.00;85.10;;;;;;2084436;28;20083;-81
2021/05/12 05:15:25;;;;;;;10.32;7.60;;;12.10;84.90;;;;;;2082764;28;20033;-81
2021/05/12 05:16:27;;;;;;;9.90;7.13;;;12.20;84.80;;;;;;2096043;28;20068;-81
2021/05/12 05:17:30;;;;;;;9.75;7.50;;;12.20;84.70;;;;;;2070571;28;20025;-81